Terminal Aerodrome Forecast
Issued by NWS

Home | Current Version | Previous Version | Graphics & Text | Print | Product List | Glossary On
Versions: 1 2 3 4 5 6 7 8 9 10 11 12 13 14
358
FTUS43 KGRB 200529
TAFAUW
TAF
KAUW 200529Z 2006/2106 19005KT P6SM SCT100 BKN200
     FM201800 19010G16KT P6SM BKN200
     FM202300 22010G17KT P6SM SCT100 BKN150 WS014/24040KT=

USA.gov is the U.S. government's official web portal to all federal, state and local government web resources and services.